sensor_id;sensor_type;location;lat;lon;timestamp;temperature;humidity
13808;DHT22;40769;51.512;5.494;2023-12-07T00:01:14;6.50;99.90
13808;DHT22;40769;51.512;5.494;2023-12-07T00:03:40;6.80;99.90
13808;DHT22;40769;51.512;5.494;2023-12-07T00:06:06;7.50;99.90
13808;DHT22;40769;51.512;5.494;2023-12-07T00:08:31;7.60;99.90
13808;DHT22;40769;51.512;5.494;2023-12-07T00:10:57;8.10;99.90
13808;DHT22;40769;51.512;5.494;2023-12-07T00:13:22;7.90;99.90
13808;DHT22;40769;51.512;5.494;2023-12-07T00:15:48;7.70;99.90
13808;DHT22;40769;51.512;5.494;2023-12-07T00:18:14;7.30;99.90
13808;DHT22;40769;51.512;5.494;2023-12-07T00:20:39;6.90;99.90
13808;DHT22;40769;51.512;5.494;2023-12-07T00:23:05;6.50;99.90
13808;DHT22;40769;51.512;5.494;2023-12-07T00:25:31;6.10;99.90
13808;DHT22;40769;51.512;5.494;2023-12-07T00:27:59;5.80;99.90
13808;DHT22;40769;51.512;5.494;2023-12-07T00:30:25;5.60;99.90
13808;DHT22;40769;51.512;5.494;2023-12-07T00:32:51;5.50;99.90
13808;DHT22;40769;51.512;5.494;2023-12-07T00:35:16;5.50;99.90
13808;DHT22;40769;51.512;5.494;2023-12-07T00:37:43;5.70;99.90
13808;DHT22;40769;51.512;5.494;2023-12-07T00:40:09;5.90;99.90
13808;DHT22;40769;51.512;5.494;2023-12-07T00:42:34;6.10;99.90
13808;DHT22;40769;51.512;5.494;2023-12-07T00:45:01;6.40;99.90
13808;DHT22;40769;51.512;5.494;2023-12-07T00:47:26;6.80;99.90
13808;DHT22;40769;51.512;5.494;2023-12-07T00:49:52;7.10;99.90
13808;DHT22;40769;51.512;5.494;2023-12-07T00:52:17;7.50;99.90
13808;DHT22;40769;51.512;5.494;2023-12-07T00:54:43;7.70;99.90
13808;DHT22;40769;51.512;5.494;2023-12-07T00:57:09;7.60;99.90
13808;DHT22;40769;51.512;5.494;2023-12-07T00:59:35;7.30;99.90
13808;DHT22;40769;51.512;5.494;2023-12-07T01:02:02;6.90;99.90
13808;DHT22;40769;51.512;5.494;2023-12-07T01:04:28;6.50;99.90
13808;DHT22;40769;51.512;5.494;2023-12-07T01:06:54;6.00;99.90
13808;DHT22;40769;51.512;5.494;2023-12-07T01:09:20;5.60;99.90
13808;DHT22;40769;51.512;5.494;2023-12-07T01:11:47;5.30;99.90
13808;DHT22;40769;51.512;5.494;2023-12-07T01:14:13;5.20;99.90
13808;DHT22;40769;51.512;5.494;2023-12-07T01:16:38;6.10;99.90
13808;DHT22;40769;51.512;5.494;2023-12-07T01:19:04;6.30;99.90
13808;DHT22;40769;51.512;5.494;2023-12-07T01:21:29;5.80;99.90
13808;DHT22;40769;51.512;5.494;2023-12-07T01:23:55;5.80;99.90
13808;DHT22;40769;51.512;5.494;2023-12-07T01:26:20;6.10;99.90
13808;DHT22;40769;51.512;5.494;2023-12-07T01:28:46;6.20;99.90
13808;DHT22;40769;51.512;5.494;2023-12-07T01:31:12;6.80;99.90
13808;DHT22;40769;51.512;5.494;2023-12-07T01:33:37;7.00;99.90
13808;DHT22;40769;51.512;5.494;2023-12-07T01:36:03;7.20;99.90
13808;DHT22;40769;51.512;5.494;2023-12-07T01:38:29;7.20;99.90
13808;DHT22;40769;51.512;5.494;2023-12-07T01:40:54;7.00;99.90
13808;DHT22;40769;51.512;5.494;2023-12-07T01:43:22;6.60;99.90
13808;DHT22;40769;51.512;5.494;2023-12-07T01:45:48;6.20;99.90
13808;DHT22;40769;51.512;5.494;2023-12-07T01:48:15;5.80;99.90
13808;DHT22;40769;51.512;5.494;2023-12-07T01:50:41;5.40;99.90
13808;DHT22;40769;51.512;5.494;2023-12-07T01:53:07;5.10;99.90
13808;DHT22;40769;51.512;5.494;2023-12-07T01:55:33;4.90;99.90
13808;DHT22;40769;51.512;5.494;2023-12-07T01:57:59;4.90;99.90
13808;DHT22;40769;51.512;5.494;2023-12-07T02:00:26;5.00;99.90
13808;DHT22;40769;51.512;5.494;2023-12-07T02:02:52;5.10;99.90
13808;DHT22;40769;51.512;5.494;2023-12-07T02:05:18;5.30;99.90
13808;DHT22;40769;51.512;5.494;2023-12-07T02:07:44;5.60;99.90
13808;DHT22;40769;51.512;5.494;2023-12-07T02:10:12;6.50;99.90
13808;DHT22;40769;51.512;5.494;2023-12-07T02:12:41;6.20;99.90
13808;DHT22;40769;51.512;5.494;2023-12-07T02:15:07;6.60;99.90
13808;DHT22;40769;51.512;5.494;2023-12-07T02:17:42;7.00;99.90
13808;DHT22;40769;51.512;5.494;2023-12-07T02:20:32;7.10;99.90
13808;DHT22;40769;51.512;5.494;2023-12-07T02:23:01;6.90;99.90
13808;DHT22;40769;51.512;5.494;2023-12-07T02:25:53;6.60;99.90
13808;DHT22;40769;51.512;5.494;2023-12-07T02:28:19;6.20;99.90
13808;DHT22;40769;51.512;5.494;2023-12-07T02:30:45;5.90;99.90
13808;DHT22;40769;51.512;5.494;2023-12-07T02:33:11;5.60;99.90
13808;DHT22;40769;51.512;5.494;2023-12-07T02:35:38;5.40;99.90
13808;DHT22;40769;51.512;5.494;2023-12-07T02:38:05;5.30;99.90
13808;DHT22;40769;51.512;5.494;2023-12-07T02:40:32;5.30;99.90
13808;DHT22;40769;51.512;5.494;2023-12-07T02:42:59;5.40;99.90
13808;DHT22;40769;51.512;5.494;2023-12-07T02:45:25;5.60;99.90
13808;DHT22;40769;51.512;5.494;2023-12-07T02:47:52;6.30;99.90
13808;DHT22;40769;51.512;5.494;2023-12-07T02:50:18;5.90;99.90
13808;DHT22;40769;51.512;5.494;2023-12-07T02:52:43;6.10;99.90
13808;DHT22;40769;51.512;5.494;2023-12-07T02:55:09;6.50;99.90
13808;DHT22;40769;51.512;5.494;2023-12-07T02:57:35;6.70;99.90
13808;DHT22;40769;51.512;5.494;2023-12-07T03:00:02;7.70;99.90
13808;DHT22;40769;51.512;5.494;2023-12-07T03:02:35;6.80;99.90
13808;DHT22;40769;51.512;5.494;2023-12-07T03:05:01;6.70;99.90
13808;DHT22;40769;51.512;5.494;2023-12-07T03:07:27;6.40;99.90
13808;DHT22;40769;51.512;5.494;2023-12-07T03:09:52;6.20;99.90
13808;DHT22;40769;51.512;5.494;2023-12-07T03:12:18;6.00;99.90
13808;DHT22;40769;51.512;5.494;2023-12-07T03:14:43;5.90;99.90
13808;DHT22;40769;51.512;5.494;2023-12-07T03:17:09;5.90;99.90
13808;DHT22;40769;51.512;5.494;2023-12-07T03:19:38;5.90;99.90
13808;DHT22;40769;51.512;5.494;2023-12-07T03:22:04;6.00;99.90
13808;DHT22;40769;51.512;5.494;2023-12-07T03:24:29;6.70;99.90
13808;DHT22;40769;51.512;5.494;2023-12-07T03:26:55;6.40;99.90
13808;DHT22;40769;51.512;5.494;2023-12-07T03:29:20;7.00;99.90
13808;DHT22;40769;51.512;5.494;2023-12-07T03:31:46;6.80;99.90
13808;DHT22;40769;51.512;5.494;2023-12-07T03:34:12;7.00;99.90
13808;DHT22;40769;51.512;5.494;2023-12-07T03:36:42;7.20;99.90
13808;DHT22;40769;51.512;5.494;2023-12-07T03:39:07;7.50;99.90
13808;DHT22;40769;51.512;5.494;2023-12-07T03:41:33;7.90;99.90
13808;DHT22;40769;51.512;5.494;2023-12-07T03:43:59;8.10;99.90
13808;DHT22;40769;51.512;5.494;2023-12-07T03:46:24;8.00;99.90
13808;DHT22;40769;51.512;5.494;2023-12-07T03:48:50;7.80;99.90
13808;DHT22;40769;51.512;5.494;2023-12-07T03:51:15;7.60;99.90
13808;DHT22;40769;51.512;5.494;2023-12-07T03:53:42;7.30;99.90
13808;DHT22;40769;51.512;5.494;2023-12-07T03:56:08;7.00;99.90
13808;DHT22;40769;51.512;5.494;2023-12-07T03:58:34;6.70;99.90
13808;DHT22;40769;51.512;5.494;2023-12-07T04:00:59;6.50;99.90
13808;DHT22;40769;51.512;5.494;2023-12-07T04:03:25;6.40;99.90
13808;DHT22;40769;51.512;5.494;2023-12-07T04:05:51;6.50;99.90
13808;DHT22;40769;51.512;5.494;2023-12-07T04:08:17;6.70;99.90
13808;DHT22;40769;51.512;5.494;2023-12-07T04:10:42;6.80;99.90
13808;DHT22;40769;51.512;5.494;2023-12-07T04:13:08;7.10;99.90
13808;DHT22;40769;51.512;5.494;2023-12-07T04:15:34;7.00;99.90
13808;DHT22;40769;51.512;5.494;2023-12-07T04:17:59;7.10;99.90
13808;DHT22;40769;51.512;5.494;2023-12-07T04:20:25;7.20;99.90
13808;DHT22;40769;51.512;5.494;2023-12-07T04:22:50;7.40;99.90
13808;DHT22;40769;51.512;5.494;2023-12-07T04:25:16;7.40;99.90
13808;DHT22;40769;51.512;5.494;2023-12-07T04:27:42;7.20;99.90
13808;DHT22;40769;51.512;5.494;2023-12-07T04:30:08;7.00;99.90
13808;DHT22;40769;51.512;5.494;2023-12-07T04:32:33;6.70;99.90
13808;DHT22;40769;51.512;5.494;2023-12-07T04:34:59;7.50;99.90
13808;DHT22;40769;51.512;5.494;2023-12-07T04:37:25;6.30;99.90
13808;DHT22;40769;51.512;5.494;2023-12-07T04:39:50;6.10;99.90
13808;DHT22;40769;51.512;5.494;2023-12-07T04:42:16;6.00;99.90
13808;DHT22;40769;51.512;5.494;2023-12-07T04:44:41;6.00;99.90
13808;DHT22;40769;51.512;5.494;2023-12-07T04:47:07;6.10;99.90
13808;DHT22;40769;51.512;5.494;2023-12-07T04:49:32;6.00;99.90
13808;DHT22;40769;51.512;5.494;2023-12-07T04:51:58;6.70;99.90
13808;DHT22;40769;51.512;5.494;2023-12-07T04:54:24;6.00;99.90
13808;DHT22;40769;51.512;5.494;2023-12-07T04:56:49;6.00;99.90
13808;DHT22;40769;51.512;5.494;2023-12-07T04:59:15;6.00;99.90
13808;DHT22;40769;51.512;5.494;2023-12-07T05:01:40;6.10;99.90
13808;DHT22;40769;51.512;5.494;2023-12-07T05:04:06;6.50;99.90
13808;DHT22;40769;51.512;5.494;2023-12-07T05:06:32;6.60;99.90
13808;DHT22;40769;51.512;5.494;2023-12-07T05:08:58;6.20;99.90
13808;DHT22;40769;51.512;5.494;2023-12-07T05:11:23;6.30;99.90
13808;DHT22;40769;51.512;5.494;2023-12-07T05:13:49;6.20;99.90
13808;DHT22;40769;51.512;5.494;2023-12-07T05:16:15;6.10;99.90
13808;DHT22;40769;51.512;5.494;2023-12-07T05:18:43;6.00;99.90
13808;DHT22;40769;51.512;5.494;2023-12-07T05:21:09;5.80;99.90
13808;DHT22;40769;51.512;5.494;2023-12-07T05:23:35;5.70;99.90
13808;DHT22;40769;51.512;5.494;2023-12-07T05:26:00;5.70;99.90
13808;DHT22;40769;51.512;5.494;2023-12-07T05:28:26;5.60;99.90
13808;DHT22;40769;51.512;5.494;2023-12-07T05:30:52;5.70;99.90
13808;DHT22;40769;51.512;5.494;2023-12-07T05:33:18;5.80;99.90
13808;DHT22;40769;51.512;5.494;2023-12-07T05:35:47;5.90;99.90
13808;DHT22;40769;51.512;5.494;2023-12-07T05:38:13;6.60;99.90
13808;DHT22;40769;51.512;5.494;2023-12-07T05:40:39;6.30;99.90
13808;DHT22;40769;51.512;5.494;2023-12-07T05:43:04;6.60;99.90
13808;DHT22;40769;51.512;5.494;2023-12-07T05:45:30;6.80;99.90
13808;DHT22;40769;51.512;5.494;2023-12-07T05:47:56;7.00;99.90
13808;DHT22;40769;51.512;5.494;2023-12-07T05:50:21;7.30;99.90
13808;DHT22;40769;51.512;5.494;2023-12-07T05:52:47;7.70;99.90
13808;DHT22;40769;51.512;5.494;2023-12-07T05:55:13;7.80;99.90
13808;DHT22;40769;51.512;5.494;2023-12-07T05:57:39;7.70;99.90
13808;DHT22;40769;51.512;5.494;2023-12-07T06:00:05;7.60;99.90
13808;DHT22;40769;51.512;5.494;2023-12-07T06:02:35;7.40;99.90
13808;DHT22;40769;51.512;5.494;2023-12-07T06:05:00;7.20;99.90
13808;DHT22;40769;51.512;5.494;2023-12-07T06:07:26;7.10;99.90
13808;DHT22;40769;51.512;5.494;2023-12-07T06:09:51;6.90;99.90
13808;DHT22;40769;51.512;5.494;2023-12-07T06:12:17;7.00;99.90
13808;DHT22;40769;51.512;5.494;2023-12-07T06:14:43;7.10;99.90
13808;DHT22;40769;51.512;5.494;2023-12-07T06:17:08;7.30;99.90
13808;DHT22;40769;51.512;5.494;2023-12-07T06:19:34;7.40;99.90
13808;DHT22;40769;51.512;5.494;2023-12-07T06:21:59;7.50;99.90
13808;DHT22;40769;51.512;5.494;2023-12-07T06:24:25;8.20;99.90
13808;DHT22;40769;51.512;5.494;2023-12-07T06:26:51;7.80;99.90
13808;DHT22;40769;51.512;5.494;2023-12-07T06:29:17;7.90;99.90
13808;DHT22;40769;51.512;5.494;2023-12-07T06:31:44;8.10;99.90
13808;DHT22;40769;51.512;5.494;2023-12-07T06:34:10;8.30;99.90
13808;DHT22;40769;51.512;5.494;2023-12-07T06:36:35;8.30;99.90
13808;DHT22;40769;51.512;5.494;2023-12-07T06:39:02;8.90;99.90
13808;DHT22;40769;51.512;5.494;2023-12-07T06:41:28;8.10;99.90
13808;DHT22;40769;51.512;5.494;2023-12-07T06:43:55;7.80;99.90
13808;DHT22;40769;51.512;5.494;2023-12-07T06:46:20;7.50;99.90
13808;DHT22;40769;51.512;5.494;2023-12-07T06:48:46;7.30;99.90
13808;DHT22;40769;51.512;5.494;2023-12-07T06:51:12;7.80;99.90
13808;DHT22;40769;51.512;5.494;2023-12-07T06:53:41;7.10;99.90
13808;DHT22;40769;51.512;5.494;2023-12-07T06:56:08;7.10;99.90
13808;DHT22;40769;51.512;5.494;2023-12-07T06:58:34;7.20;99.90
13808;DHT22;40769;51.512;5.494;2023-12-07T07:01:00;7.30;99.90
13808;DHT22;40769;51.512;5.494;2023-12-07T07:03:25;7.50;99.90
13808;DHT22;40769;51.512;5.494;2023-12-07T07:05:54;7.70;99.90
13808;DHT22;40769;51.512;5.494;2023-12-07T07:08:20;7.80;99.90
13808;DHT22;40769;51.512;5.494;2023-12-07T07:10:45;7.90;99.90
13808;DHT22;40769;51.512;5.494;2023-12-07T07:13:12;8.00;99.90
13808;DHT22;40769;51.512;5.494;2023-12-07T07:15:42;8.20;99.90
13808;DHT22;40769;51.512;5.494;2023-12-07T07:18:08;8.10;99.90
13808;DHT22;40769;51.512;5.494;2023-12-07T07:20:34;8.10;99.90
13808;DHT22;40769;51.512;5.494;2023-12-07T07:23:00;7.90;99.90
13808;DHT22;40769;51.512;5.494;2023-12-07T07:25:25;7.60;99.90
13808;DHT22;40769;51.512;5.494;2023-12-07T07:27:51;7.40;99.90
13808;DHT22;40769;51.512;5.494;2023-12-07T07:30:18;7.10;99.90
13808;DHT22;40769;51.512;5.494;2023-12-07T07:32:43;7.00;99.90
13808;DHT22;40769;51.512;5.494;2023-12-07T07:35:09;7.00;99.90
13808;DHT22;40769;51.512;5.494;2023-12-07T07:37:38;7.50;99.90
13808;DHT22;40769;51.512;5.494;2023-12-07T07:40:04;7.10;99.90
13808;DHT22;40769;51.512;5.494;2023-12-07T07:42:32;7.20;99.90
13808;DHT22;40769;51.512;5.494;2023-12-07T07:44:58;7.50;99.90
13808;DHT22;40769;51.512;5.494;2023-12-07T07:47:24;7.80;99.90
13808;DHT22;40769;51.512;5.494;2023-12-07T07:49:50;8.20;99.90
13808;DHT22;40769;51.512;5.494;2023-12-07T07:52:16;8.50;99.90
13808;DHT22;40769;51.512;5.494;2023-12-07T07:54:42;8.70;99.90
13808;DHT22;40769;51.512;5.494;2023-12-07T07:57:08;8.80;99.90
13808;DHT22;40769;51.512;5.494;2023-12-07T07:59:33;9.00;99.90
13808;DHT22;40769;51.512;5.494;2023-12-07T08:01:59;9.00;99.90
13808;DHT22;40769;51.512;5.494;2023-12-07T08:04:25;8.80;99.90
13808;DHT22;40769;51.512;5.494;2023-12-07T08:06:50;8.60;99.90
13808;DHT22;40769;51.512;5.494;2023-12-07T08:09:16;8.30;99.90
13808;DHT22;40769;51.512;5.494;2023-12-07T08:11:42;7.90;99.90
13808;DHT22;40769;51.512;5.494;2023-12-07T08:14:08;7.70;99.90
13808;DHT22;40769;51.512;5.494;2023-12-07T08:16:34;7.50;99.90
13808;DHT22;40769;51.512;5.494;2023-12-07T08:18:59;7.40;99.90
13808;DHT22;40769;51.512;5.494;2023-12-07T08:21:25;7.40;99.90
13808;DHT22;40769;51.512;5.494;2023-12-07T08:23:51;7.40;99.90
13808;DHT22;40769;51.512;5.494;2023-12-07T08:26:17;8.10;99.90
13808;DHT22;40769;51.512;5.494;2023-12-07T08:28:43;7.60;99.90
13808;DHT22;40769;51.512;5.494;2023-12-07T08:31:10;7.80;99.90
13808;DHT22;40769;51.512;5.494;2023-12-07T08:33:36;7.50;99.90
13808;DHT22;40769;51.512;5.494;2023-12-07T08:36:05;8.60;99.90
13808;DHT22;40769;51.512;5.494;2023-12-07T08:38:32;8.70;99.90
13808;DHT22;40769;51.512;5.494;2023-12-07T08:40:58;9.00;99.90
13808;DHT22;40769;51.512;5.494;2023-12-07T08:43:24;9.20;99.90
13808;DHT22;40769;51.512;5.494;2023-12-07T08:45:53;9.10;99.90
13808;DHT22;40769;51.512;5.494;2023-12-07T08:48:22;8.90;99.90
13808;DHT22;40769;51.512;5.494;2023-12-07T08:50:51;8.70;99.90
13808;DHT22;40769;51.512;5.494;2023-12-07T08:53:17;8.50;99.90
13808;DHT22;40769;51.512;5.494;2023-12-07T08:55:43;8.30;99.90
13808;DHT22;40769;51.512;5.494;2023-12-07T08:58:11;8.80;99.90
13808;DHT22;40769;51.512;5.494;2023-12-07T09:00:37;8.20;99.90
13808;DHT22;40769;51.512;5.494;2023-12-07T09:03:04;7.80;99.90
13808;DHT22;40769;51.512;5.494;2023-12-07T09:05:29;7.70;99.90
13808;DHT22;40769;51.512;5.494;2023-12-07T09:07:58;7.70;99.90
13808;DHT22;40769;51.512;5.494;2023-12-07T09:10:23;7.70;99.90
13808;DHT22;40769;51.512;5.494;2023-12-07T09:12:49;7.70;99.90
13808;DHT22;40769;51.512;5.494;2023-12-07T09:15:14;8.00;99.90
13808;DHT22;40769;51.512;5.494;2023-12-07T09:17:40;7.90;99.90
13808;DHT22;40769;51.512;5.494;2023-12-07T09:20:10;8.00;99.90
13808;DHT22;40769;51.512;5.494;2023-12-07T09:22:39;8.30;99.90
13808;DHT22;40769;51.512;5.494;2023-12-07T09:25:06;7.90;99.90
13808;DHT22;40769;51.512;5.494;2023-12-07T09:27:33;8.40;99.90
13808;DHT22;40769;51.512;5.494;2023-12-07T09:30:00;8.30;99.90
13808;DHT22;40769;51.512;5.494;2023-12-07T09:32:26;8.20;99.90
13808;DHT22;40769;51.512;5.494;2023-12-07T09:34:53;8.00;99.90
13808;DHT22;40769;51.512;5.494;2023-12-07T09:37:19;8.30;99.90
13808;DHT22;40769;51.512;5.494;2023-12-07T09:39:45;8.00;99.90
13808;DHT22;40769;51.512;5.494;2023-12-07T09:42:11;8.60;99.90
13808;DHT22;40769;51.512;5.494;2023-12-07T09:44:36;7.80;99.90
13808;DHT22;40769;51.512;5.494;2023-12-07T09:47:02;7.80;99.90
13808;DHT22;40769;51.512;5.494;2023-12-07T09:49:30;7.80;99.90
13808;DHT22;40769;51.512;5.494;2023-12-07T09:51:56;7.80;99.90
13808;DHT22;40769;51.512;5.494;2023-12-07T09:54:23;7.90;99.90
13808;DHT22;40769;51.512;5.494;2023-12-07T09:56:50;8.10;99.90
13808;DHT22;40769;51.512;5.494;2023-12-07T09:59:18;8.30;99.90
13808;DHT22;40769;51.512;5.494;2023-12-07T10:01:44;8.50;99.90
13808;DHT22;40769;51.512;5.494;2023-12-07T10:06:43;9.10;99.90
13808;DHT22;40769;51.512;5.494;2023-12-07T10:09:10;9.10;99.90
13808;DHT22;40769;51.512;5.494;2023-12-07T10:11:37;9.10;99.90
13808;DHT22;40769;51.512;5.494;2023-12-07T10:14:02;9.00;99.90
13808;DHT22;40769;51.512;5.494;2023-12-07T10:16:28;8.80;99.90
13808;DHT22;40769;51.512;5.494;2023-12-07T10:18:53;8.80;99.90
13808;DHT22;40769;51.512;5.494;2023-12-07T10:21:34;8.70;99.90
13808;DHT22;40769;51.512;5.494;2023-12-07T10:24:00;8.60;99.90
13808;DHT22;40769;51.512;5.494;2023-12-07T10:26:27;8.60;99.90
13808;DHT22;40769;51.512;5.494;2023-12-07T10:28:53;8.60;99.90
13808;DHT22;40769;51.512;5.494;2023-12-07T10:31:19;8.70;99.90
13808;DHT22;40769;51.512;5.494;2023-12-07T10:33:49;8.80;99.90
13808;DHT22;40769;51.512;5.494;2023-12-07T10:36:15;9.00;99.90
13808;DHT22;40769;51.512;5.494;2023-12-07T10:38:40;8.90;99.90
13808;DHT22;40769;51.512;5.494;2023-12-07T10:41:12;9.90;99.90
13808;DHT22;40769;51.512;5.494;2023-12-07T10:44:01;9.20;99.90
13808;DHT22;40769;51.512;5.494;2023-12-07T10:46:42;9.30;99.90
13808;DHT22;40769;51.512;5.494;2023-12-07T10:49:17;9.40;99.90
13808;DHT22;40769;51.512;5.494;2023-12-07T10:51:51;9.90;99.90
13808;DHT22;40769;51.512;5.494;2023-12-07T10:54:30;9.30;99.90
13808;DHT22;40769;51.512;5.494;2023-12-07T10:56:59;9.40;99.90
13808;DHT22;40769;51.512;5.494;2023-12-07T10:59:28;9.50;99.90
13808;DHT22;40769;51.512;5.494;2023-12-07T11:01:57;9.60;99.90
13808;DHT22;40769;51.512;5.494;2023-12-07T11:04:23;9.80;99.90
13808;DHT22;40769;51.512;5.494;2023-12-07T11:06:50;10.00;99.90
13808;DHT22;40769;51.512;5.494;2023-12-07T11:09:22;10.30;99.90
13808;DHT22;40769;51.512;5.494;2023-12-07T11:11:54;10.60;99.90
13808;DHT22;40769;51.512;5.494;2023-12-07T11:14:22;10.90;99.90
13808;DHT22;40769;51.512;5.494;2023-12-07T11:16:48;11.20;99.90
13808;DHT22;40769;51.512;5.494;2023-12-07T11:21:59;11.80;99.90
13808;DHT22;40769;51.512;5.494;2023-12-07T11:24:25;12.00;99.90
13808;DHT22;40769;51.512;5.494;2023-12-07T11:26:57;12.00;99.90
13808;DHT22;40769;51.512;5.494;2023-12-07T11:29:28;12.00;99.90
13808;DHT22;40769;51.512;5.494;2023-12-07T11:32:00;12.00;99.90
13808;DHT22;40769;51.512;5.494;2023-12-07T11:34:45;11.90;99.90
13808;DHT22;40769;51.512;5.494;2023-12-07T11:37:14;11.80;99.90
13808;DHT22;40769;51.512;5.494;2023-12-07T11:39:41;11.70;99.90
13808;DHT22;40769;51.512;5.494;2023-12-07T11:42:16;11.60;99.90
13808;DHT22;40769;51.512;5.494;2023-12-07T11:44:45;11.50;99.90
13808;DHT22;40769;51.512;5.494;2023-12-07T11:47:18;11.50;99.90
13808;DHT22;40769;51.512;5.494;2023-12-07T11:49:45;11.40;99.90
13808;DHT22;40769;51.512;5.494;2023-12-07T11:52:18;11.50;99.90
13808;DHT22;40769;51.512;5.494;2023-12-07T11:54:45;11.60;99.90
13808;DHT22;40769;51.512;5.494;2023-12-07T11:57:12;11.90;99.90
13808;DHT22;40769;51.512;5.494;2023-12-07T11:59:38;12.20;99.90
13808;DHT22;40769;51.512;5.494;2023-12-07T12:02:04;12.50;99.90
13808;DHT22;40769;51.512;5.494;2023-12-07T12:04:29;12.70;99.90
13808;DHT22;40769;51.512;5.494;2023-12-07T12:06:55;12.80;99.90
13808;DHT22;40769;51.512;5.494;2023-12-07T12:09:21;12.90;99.90
13808;DHT22;40769;51.512;5.494;2023-12-07T12:11:47;13.00;99.90
13808;DHT22;40769;51.512;5.494;2023-12-07T12:14:14;12.90;99.90
13808;DHT22;40769;51.512;5.494;2023-12-07T12:16:45;13.30;99.90
13808;DHT22;40769;51.512;5.494;2023-12-07T12:19:10;13.20;99.90
13808;DHT22;40769;51.512;5.494;2023-12-07T12:21:37;13.20;99.90
13808;DHT22;40769;51.512;5.494;2023-12-07T12:24:10;13.30;99.90
13808;DHT22;40769;51.512;5.494;2023-12-07T12:26:37;13.30;99.90
13808;DHT22;40769;51.512;5.494;2023-12-07T12:29:05;13.30;99.90
13808;DHT22;40769;51.512;5.494;2023-12-07T12:31:32;13.30;99.90
13808;DHT22;40769;51.512;5.494;2023-12-07T12:33:57;13.30;99.90
13808;DHT22;40769;51.512;5.494;2023-12-07T12:36:26;13.40;99.90
13808;DHT22;40769;51.512;5.494;2023-12-07T12:38:53;13.50;99.90
13808;DHT22;40769;51.512;5.494;2023-12-07T12:41:20;13.50;99.90
13808;DHT22;40769;51.512;5.494;2023-12-07T12:43:46;14.20;99.90
13808;DHT22;40769;51.512;5.494;2023-12-07T12:46:12;13.60;99.90
13808;DHT22;40769;51.512;5.494;2023-12-07T12:48:52;13.70;99.90
13808;DHT22;40769;51.512;5.494;2023-12-07T12:51:18;13.70;99.90
13808;DHT22;40769;51.512;5.494;2023-12-07T12:53:46;13.60;99.90
13808;DHT22;40769;51.512;5.494;2023-12-07T12:56:12;13.50;99.90
13808;DHT22;40769;51.512;5.494;2023-12-07T12:58:38;13.50;99.90
13808;DHT22;40769;51.512;5.494;2023-12-07T13:01:04;13.30;99.90
13808;DHT22;40769;51.512;5.494;2023-12-07T13:03:30;13.30;99.90
13808;DHT22;40769;51.512;5.494;2023-12-07T13:05:57;14.30;99.90
13808;DHT22;40769;51.512;5.494;2023-12-07T13:08:22;13.20;99.90
13808;DHT22;40769;51.512;5.494;2023-12-07T13:10:48;13.10;99.90
13808;DHT22;40769;51.512;5.494;2023-12-07T13:13:15;13.10;99.90
13808;DHT22;40769;51.512;5.494;2023-12-07T13:15:41;13.20;99.90
13808;DHT22;40769;51.512;5.494;2023-12-07T13:18:07;13.10;99.90
13808;DHT22;40769;51.512;5.494;2023-12-07T13:20:34;13.10;99.90
13808;DHT22;40769;51.512;5.494;2023-12-07T13:23:00;13.10;99.90
13808;DHT22;40769;51.512;5.494;2023-12-07T13:25:26;13.00;99.90
13808;DHT22;40769;51.512;5.494;2023-12-07T13:27:52;12.80;99.90
13808;DHT22;40769;51.512;5.494;2023-12-07T13:30:18;12.50;99.90
13808;DHT22;40769;51.512;5.494;2023-12-07T13:32:44;12.30;99.90
13808;DHT22;40769;51.512;5.494;2023-12-07T13:35:09;12.10;99.90
13808;DHT22;40769;51.512;5.494;2023-12-07T13:37:35;11.90;99.90
13808;DHT22;40769;51.512;5.494;2023-12-07T13:40:02;11.70;99.90
13808;DHT22;40769;51.512;5.494;2023-12-07T13:42:30;11.50;99.90
13808;DHT22;40769;51.512;5.494;2023-12-07T13:44:57;11.50;99.90
13808;DHT22;40769;51.512;5.494;2023-12-07T13:47:24;11.20;99.90
13808;DHT22;40769;51.512;5.494;2023-12-07T13:49:58;11.10;99.90
13808;DHT22;40769;51.512;5.494;2023-12-07T13:52:24;11.10;99.90
13808;DHT22;40769;51.512;5.494;2023-12-07T13:54:50;11.10;99.90
13808;DHT22;40769;51.512;5.494;2023-12-07T13:57:16;11.20;99.90
13808;DHT22;40769;51.512;5.494;2023-12-07T13:59:42;11.30;99.90
13808;DHT22;40769;51.512;5.494;2023-12-07T14:02:08;11.40;99.90
13808;DHT22;40769;51.512;5.494;2023-12-07T14:04:36;11.20;99.90
13808;DHT22;40769;51.512;5.494;2023-12-07T14:07:10;11.30;99.90
13808;DHT22;40769;51.512;5.494;2023-12-07T14:09:37;11.30;99.90
13808;DHT22;40769;51.512;5.494;2023-12-07T14:12:04;11.30;99.90
13808;DHT22;40769;51.512;5.494;2023-12-07T14:14:29;11.30;99.90
13808;DHT22;40769;51.512;5.494;2023-12-07T14:16:55;11.30;99.90
13808;DHT22;40769;51.512;5.494;2023-12-07T14:19:21;11.30;99.90
13808;DHT22;40769;51.512;5.494;2023-12-07T14:21:47;11.30;99.90
13808;DHT22;40769;51.512;5.494;2023-12-07T14:24:13;11.30;99.90
13808;DHT22;40769;51.512;5.494;2023-12-07T14:26:41;11.20;99.90
13808;DHT22;40769;51.512;5.494;2023-12-07T14:29:07;11.80;99.90
13808;DHT22;40769;51.512;5.494;2023-12-07T14:31:35;10.80;99.90
13808;DHT22;40769;51.512;5.494;2023-12-07T14:34:02;10.60;99.90
13808;DHT22;40769;51.512;5.494;2023-12-07T14:36:29;10.40;99.90
13808;DHT22;40769;51.512;5.494;2023-12-07T14:38:55;10.30;99.90
13808;DHT22;40769;51.512;5.494;2023-12-07T14:41:20;10.20;99.90
13808;DHT22;40769;51.512;5.494;2023-12-07T14:43:49;10.20;99.90
13808;DHT22;40769;51.512;5.494;2023-12-07T14:46:14;10.20;99.90
13808;DHT22;40769;51.512;5.494;2023-12-07T14:48:40;10.20;99.90
13808;DHT22;40769;51.512;5.494;2023-12-07T14:51:06;10.20;99.90
13808;DHT22;40769;51.512;5.494;2023-12-07T14:53:32;10.20;99.90
13808;DHT22;40769;51.512;5.494;2023-12-07T14:55:59;10.20;99.90
13808;DHT22;40769;51.512;5.494;2023-12-07T14:58:25;10.20;99.90
13808;DHT22;40769;51.512;5.494;2023-12-07T15:00:51;10.30;99.90
13808;DHT22;40769;51.512;5.494;2023-12-07T15:03:17;10.30;99.90
13808;DHT22;40769;51.512;5.494;2023-12-07T15:05:44;10.40;99.90
13808;DHT22;40769;51.512;5.494;2023-12-07T15:08:10;10.40;99.90
13808;DHT22;40769;51.512;5.494;2023-12-07T15:10:36;10.60;99.90
13808;DHT22;40769;51.512;5.494;2023-12-07T15:13:03;10.70;99.90
13808;DHT22;40769;51.512;5.494;2023-12-07T15:15:29;10.90;99.90
13808;DHT22;40769;51.512;5.494;2023-12-07T15:17:55;11.10;99.90
13808;DHT22;40769;51.512;5.494;2023-12-07T15:20:21;11.50;99.90
13808;DHT22;40769;51.512;5.494;2023-12-07T15:22:47;11.80;99.90
13808;DHT22;40769;51.512;5.494;2023-12-07T15:25:13;11.50;99.90
13808;DHT22;40769;51.512;5.494;2023-12-07T15:27:39;11.60;99.90
13808;DHT22;40769;51.512;5.494;2023-12-07T15:30:05;11.80;99.90
13808;DHT22;40769;51.512;5.494;2023-12-07T15:32:33;11.70;99.90
13808;DHT22;40769;51.512;5.494;2023-12-07T15:34:58;11.90;99.90
13808;DHT22;40769;51.512;5.494;2023-12-07T15:37:24;11.90;99.90
13808;DHT22;40769;51.512;5.494;2023-12-07T15:39:50;12.00;99.90
13808;DHT22;40769;51.512;5.494;2023-12-07T15:42:19;12.00;99.90
13808;DHT22;40769;51.512;5.494;2023-12-07T15:44:44;12.00;99.90